sensor_id;sensor_type;location;lat;lon;timestamp;P1;durP1;ratioP1;P2;durP2;ratioP2
56343;SDS011;42245;42.058;24.700;2022-08-21T00:00:09;17.70;;;9.50;;
56343;SDS011;42245;42.058;24.700;2022-08-21T00:02:43;13.95;;;9.52;;
56343;SDS011;42245;42.058;24.700;2022-08-21T00:05:13;17.15;;;9.40;;
56343;SDS011;42245;42.058;24.700;2022-08-21T00:07:39;17.80;;;9.52;;
56343;SDS011;42245;42.058;24.700;2022-08-21T00:10:04;16.83;;;9.43;;
56343;SDS011;42245;42.058;24.700;2022-08-21T00:12:31;17.52;;;9.23;;
56343;SDS011;42245;42.058;24.700;2022-08-21T00:14:57;17.95;;;9.23;;
56343;SDS011;42245;42.058;24.700;2022-08-21T00:17:23;19.00;;;9.68;;
56343;SDS011;42245;42.058;24.700;2022-08-21T00:19:48;13.70;;;9.80;;
56343;SDS011;42245;42.058;24.700;2022-08-21T00:22:13;14.48;;;9.02;;
56343;SDS011;42245;42.058;24.700;2022-08-21T00:24:39;19.60;;;10.20;;
56343;SDS011;42245;42.058;24.700;2022-08-21T00:27:04;16.73;;;8.93;;
56343;SDS011;42245;42.058;24.700;2022-08-21T00:29:30;16.83;;;9.30;;
56343;SDS011;42245;42.058;24.700;2022-08-21T00:31:55;18.30;;;9.02;;
56343;SDS011;42245;42.058;24.700;2022-08-21T00:34:21;16.35;;;8.80;;
56343;SDS011;42245;42.058;24.700;2022-08-21T00:36:46;14.77;;;8.00;;
56343;SDS011;42245;42.058;24.700;2022-08-21T00:39:12;15.98;;;8.27;;
56343;SDS011;42245;42.058;24.700;2022-08-21T00:41:38;15.85;;;8.30;;
56343;SDS011;42245;42.058;24.700;2022-08-21T00:44:05;13.85;;;8.60;;
56343;SDS011;42245;42.058;24.700;2022-08-21T00:46:32;14.07;;;8.85;;
56343;SDS011;42245;42.058;24.700;2022-08-21T00:48:57;15.77;;;8.90;;
56343;SDS011;42245;42.058;24.700;2022-08-21T00:51:30;18.13;;;9.00;;
56343;SDS011;42245;42.058;24.700;2022-08-21T00:54:17;12.23;;;8.82;;
56343;SDS011;42245;42.058;24.700;2022-08-21T00:56:44;15.98;;;9.52;;
56343;SDS011;42245;42.058;24.700;2022-08-21T00:59:14;17.55;;;9.05;;
56343;SDS011;42245;42.058;24.700;2022-08-21T01:01:41;17.75;;;10.02;;
56343;SDS011;42245;42.058;24.700;2022-08-21T01:04:06;17.77;;;9.68;;
56343;SDS011;42245;42.058;24.700;2022-08-21T01:06:32;17.73;;;9.02;;
56343;SDS011;42245;42.058;24.700;2022-08-21T01:08:57;16.73;;;9.30;;
56343;SDS011;42245;42.058;24.700;2022-08-21T01:11:23;14.68;;;9.68;;
56343;SDS011;42245;42.058;24.700;2022-08-21T01:13:48;14.05;;;9.10;;
56343;SDS011;42245;42.058;24.700;2022-08-21T01:16:15;15.60;;;9.98;;
56343;SDS011;42245;42.058;24.700;2022-08-21T01:18:42;16.75;;;10.15;;
56343;SDS011;42245;42.058;24.700;2022-08-21T01:21:10;15.55;;;10.40;;
56343;SDS011;42245;42.058;24.700;2022-08-21T01:23:48;19.30;;;10.20;;
56343;SDS011;42245;42.058;24.700;2022-08-21T01:26:17;19.27;;;9.73;;
56343;SDS011;42245;42.058;24.700;2022-08-21T01:28:46;15.43;;;9.55;;
56343;SDS011;42245;42.058;24.700;2022-08-21T01:31:42;15.27;;;9.82;;
56343;SDS011;42245;42.058;24.700;2022-08-21T01:34:07;17.55;;;9.32;;
56343;SDS011;42245;42.058;24.700;2022-08-21T01:36:33;20.10;;;9.93;;
56343;SDS011;42245;42.058;24.700;2022-08-21T01:38:59;18.83;;;10.20;;
56343;SDS011;42245;42.058;24.700;2022-08-21T01:41:24;22.50;;;10.13;;
56343;SDS011;42245;42.058;24.700;2022-08-21T01:43:50;13.98;;;9.88;;
56343;SDS011;42245;42.058;24.700;2022-08-21T01:46:15;17.30;;;9.93;;
56343;SDS011;42245;42.058;24.700;2022-08-21T01:48:42;19.85;;;9.95;;
56343;SDS011;42245;42.058;24.700;2022-08-21T01:51:08;16.08;;;10.38;;
56343;SDS011;42245;42.058;24.700;2022-08-21T01:53:34;17.23;;;9.75;;
56343;SDS011;42245;42.058;24.700;2022-08-21T01:56:02;19.27;;;9.90;;
56343;SDS011;42245;42.058;24.700;2022-08-21T01:58:28;13.48;;;10.23;;
56343;SDS011;42245;42.058;24.700;2022-08-21T02:00:54;21.02;;;10.57;;
56343;SDS011;42245;42.058;24.700;2022-08-21T02:03:19;17.45;;;10.25;;
56343;SDS011;42245;42.058;24.700;2022-08-21T02:05:44;19.13;;;10.07;;
56343;SDS011;42245;42.058;24.700;2022-08-21T02:08:10;21.73;;;10.45;;
56343;SDS011;42245;42.058;24.700;2022-08-21T02:10:36;19.95;;;10.73;;
56343;SDS011;42245;42.058;24.700;2022-08-21T02:13:01;20.63;;;10.18;;
56343;SDS011;42245;42.058;24.700;2022-08-21T02:15:28;18.38;;;10.50;;
56343;SDS011;42245;42.058;24.700;2022-08-21T02:17:55;16.48;;;10.63;;
56343;SDS011;42245;42.058;24.700;2022-08-21T02:22:50;20.30;;;10.25;;
56343;SDS011;42245;42.058;24.700;2022-08-21T02:25:16;17.92;;;10.50;;
56343;SDS011;42245;42.058;24.700;2022-08-21T02:27:42;16.85;;;10.55;;
56343;SDS011;42245;42.058;24.700;2022-08-21T02:30:10;26.40;;;11.20;;
56343;SDS011;42245;42.058;24.700;2022-08-21T02:32:38;18.70;;;9.65;;
56343;SDS011;42245;42.058;24.700;2022-08-21T02:35:04;17.63;;;10.27;;
56343;SDS011;42245;42.058;24.700;2022-08-21T02:37:30;19.98;;;10.30;;
56343;SDS011;42245;42.058;24.700;2022-08-21T02:39:55;17.55;;;9.65;;
56343;SDS011;42245;42.058;24.700;2022-08-21T02:42:20;17.67;;;10.25;;
56343;SDS011;42245;42.058;24.700;2022-08-21T02:44:46;15.60;;;9.38;;
56343;SDS011;42245;42.058;24.700;2022-08-21T02:47:11;18.35;;;10.80;;
56343;SDS011;42245;42.058;24.700;2022-08-21T02:49:37;19.23;;;11.93;;
56343;SDS011;42245;42.058;24.700;2022-08-21T02:52:02;21.00;;;12.13;;
56343;SDS011;42245;42.058;24.700;2022-08-21T02:54:30;18.13;;;11.70;;
56343;SDS011;42245;42.058;24.700;2022-08-21T02:56:55;23.70;;;11.95;;
56343;SDS011;42245;42.058;24.700;2022-08-21T02:59:21;19.40;;;11.95;;
56343;SDS011;42245;42.058;24.700;2022-08-21T03:01:46;20.65;;;11.77;;
56343;SDS011;42245;42.058;24.700;2022-08-21T03:04:11;18.38;;;11.48;;
56343;SDS011;42245;42.058;24.700;2022-08-21T03:06:37;21.48;;;11.75;;
56343;SDS011;42245;42.058;24.700;2022-08-21T03:09:02;20.65;;;11.13;;
56343;SDS011;42245;42.058;24.700;2022-08-21T03:11:28;22.23;;;11.73;;
56343;SDS011;42245;42.058;24.700;2022-08-21T03:13:53;23.05;;;11.00;;
56343;SDS011;42245;42.058;24.700;2022-08-21T03:16:19;22.90;;;11.25;;
56343;SDS011;42245;42.058;24.700;2022-08-21T03:18:45;21.58;;;11.07;;
56343;SDS011;42245;42.058;24.700;2022-08-21T03:21:11;18.45;;;10.73;;
56343;SDS011;42245;42.058;24.700;2022-08-21T03:23:38;18.98;;;8.25;;
56343;SDS011;42245;42.058;24.700;2022-08-21T03:26:04;15.82;;;7.32;;
56343;SDS011;42245;42.058;24.700;2022-08-21T03:28:30;14.55;;;8.43;;
56343;SDS011;42245;42.058;24.700;2022-08-21T03:30:56;18.90;;;8.80;;
56343;SDS011;42245;42.058;24.700;2022-08-21T03:33:21;21.15;;;8.48;;
56343;SDS011;42245;42.058;24.700;2022-08-21T03:35:48;13.77;;;6.65;;
56343;SDS011;42245;42.058;24.700;2022-08-21T03:38:27;13.68;;;7.28;;
56343;SDS011;42245;42.058;24.700;2022-08-21T03:40:54;20.52;;;7.18;;
56343;SDS011;42245;42.058;24.700;2022-08-21T03:43:19;14.70;;;7.18;;
56343;SDS011;42245;42.058;24.700;2022-08-21T03:45:45;14.77;;;7.55;;
56343;SDS011;42245;42.058;24.700;2022-08-21T03:48:10;21.92;;;8.80;;
56343;SDS011;42245;42.058;24.700;2022-08-21T03:50:38;16.60;;;8.45;;
56343;SDS011;42245;42.058;24.700;2022-08-21T03:53:05;15.52;;;8.00;;
56343;SDS011;42245;42.058;24.700;2022-08-21T03:55:30;15.32;;;8.20;;
56343;SDS011;42245;42.058;24.700;2022-08-21T03:57:56;22.50;;;8.18;;
56343;SDS011;42245;42.058;24.700;2022-08-21T04:00:21;18.30;;;8.55;;
56343;SDS011;42245;42.058;24.700;2022-08-21T04:02:48;15.13;;;8.13;;
56343;SDS011;42245;42.058;24.700;2022-08-21T04:05:14;19.60;;;8.68;;
56343;SDS011;42245;42.058;24.700;2022-08-21T04:07:52;18.02;;;9.27;;
56343;SDS011;42245;42.058;24.700;2022-08-21T04:10:22;17.67;;;9.38;;
56343;SDS011;42245;42.058;24.700;2022-08-21T04:12:49;18.63;;;10.13;;
56343;SDS011;42245;42.058;24.700;2022-08-21T04:15:14;17.67;;;9.52;;
56343;SDS011;42245;42.058;24.700;2022-08-21T04:17:39;17.90;;;9.15;;
56343;SDS011;42245;42.058;24.700;2022-08-21T04:20:05;17.25;;;8.80;;
56343;SDS011;42245;42.058;24.700;2022-08-21T04:22:31;20.17;;;8.95;;
56343;SDS011;42245;42.058;24.700;2022-08-21T04:24:56;14.75;;;8.75;;
56343;SDS011;42245;42.058;24.700;2022-08-21T04:27:22;17.20;;;8.52;;
56343;SDS011;42245;42.058;24.700;2022-08-21T04:29:47;16.95;;;9.27;;
56343;SDS011;42245;42.058;24.700;2022-08-21T04:32:13;17.67;;;8.43;;
56343;SDS011;42245;42.058;24.700;2022-08-21T04:34:38;19.13;;;9.35;;
56343;SDS011;42245;42.058;24.700;2022-08-21T04:37:03;20.02;;;9.48;;
56343;SDS011;42245;42.058;24.700;2022-08-21T04:39:29;20.02;;;10.15;;
56343;SDS011;42245;42.058;24.700;2022-08-21T04:41:54;15.88;;;10.15;;
56343;SDS011;42245;42.058;24.700;2022-08-21T04:44:20;20.02;;;9.90;;
56343;SDS011;42245;42.058;24.700;2022-08-21T04:46:45;16.27;;;9.40;;
56343;SDS011;42245;42.058;24.700;2022-08-21T04:49:10;15.48;;;8.88;;
56343;SDS011;42245;42.058;24.700;2022-08-21T04:51:36;15.55;;;9.40;;
56343;SDS011;42245;42.058;24.700;2022-08-21T04:54:03;18.58;;;10.05;;
56343;SDS011;42245;42.058;24.700;2022-08-21T04:56:43;17.42;;;9.88;;
56343;SDS011;42245;42.058;24.700;2022-08-21T04:59:13;17.67;;;9.93;;
56343;SDS011;42245;42.058;24.700;2022-08-21T05:01:42;20.15;;;9.98;;
56343;SDS011;42245;42.058;24.700;2022-08-21T05:04:10;16.00;;;10.52;;
56343;SDS011;42245;42.058;24.700;2022-08-21T05:06:38;21.10;;;10.23;;
56343;SDS011;42245;42.058;24.700;2022-08-21T05:09:06;22.67;;;10.85;;
56343;SDS011;42245;42.058;24.700;2022-08-21T05:11:34;17.08;;;10.05;;
56343;SDS011;42245;42.058;24.700;2022-08-21T05:13:59;19.20;;;9.55;;
56343;SDS011;42245;42.058;24.700;2022-08-21T05:16:25;18.50;;;9.35;;
56343;SDS011;42245;42.058;24.700;2022-08-21T05:18:51;16.13;;;9.15;;
56343;SDS011;42245;42.058;24.700;2022-08-21T05:21:17;15.77;;;10.18;;
56343;SDS011;42245;42.058;24.700;2022-08-21T05:23:42;22.65;;;11.18;;
56343;SDS011;42245;42.058;24.700;2022-08-21T05:26:08;18.23;;;11.60;;
56343;SDS011;42245;42.058;24.700;2022-08-21T05:28:33;16.38;;;11.23;;
56343;SDS011;42245;42.058;24.700;2022-08-21T05:30:59;19.20;;;10.90;;
56343;SDS011;42245;42.058;24.700;2022-08-21T05:33:24;15.82;;;9.23;;
56343;SDS011;42245;42.058;24.700;2022-08-21T05:35:50;19.00;;;9.10;;
56343;SDS011;42245;42.058;24.700;2022-08-21T05:38:17;16.17;;;8.63;;
56343;SDS011;42245;42.058;24.700;2022-08-21T05:40:42;18.75;;;9.18;;
56343;SDS011;42245;42.058;24.700;2022-08-21T05:43:08;13.43;;;8.57;;
56343;SDS011;42245;42.058;24.700;2022-08-21T05:45:33;14.93;;;8.85;;
56343;SDS011;42245;42.058;24.700;2022-08-21T05:48:05;14.38;;;8.20;;
56343;SDS011;42245;42.058;24.700;2022-08-21T05:50:31;15.07;;;8.38;;
56343;SDS011;42245;42.058;24.700;2022-08-21T05:52:57;16.48;;;8.68;;
56343;SDS011;42245;42.058;24.700;2022-08-21T05:55:22;13.70;;;7.78;;
56343;SDS011;42245;42.058;24.700;2022-08-21T05:57:48;14.30;;;8.10;;
56343;SDS011;42245;42.058;24.700;2022-08-21T06:00:13;12.70;;;7.43;;
56343;SDS011;42245;42.058;24.700;2022-08-21T06:02:39;14.55;;;7.40;;
56343;SDS011;42245;42.058;24.700;2022-08-21T06:05:05;16.40;;;7.13;;
56343;SDS011;42245;42.058;24.700;2022-08-21T06:07:31;16.25;;;6.65;;
56343;SDS011;42245;42.058;24.700;2022-08-21T06:09:57;16.70;;;6.95;;
56343;SDS011;42245;42.058;24.700;2022-08-21T06:12:22;14.23;;;6.50;;
56343;SDS011;42245;42.058;24.700;2022-08-21T06:14:48;14.23;;;7.07;;
56343;SDS011;42245;42.058;24.700;2022-08-21T06:17:15;13.40;;;6.22;;
56343;SDS011;42245;42.058;24.700;2022-08-21T06:19:41;14.77;;;6.78;;
56343;SDS011;42245;42.058;24.700;2022-08-21T06:22:06;13.15;;;6.53;;
56343;SDS011;42245;42.058;24.700;2022-08-21T06:24:32;13.48;;;6.90;;
56343;SDS011;42245;42.058;24.700;2022-08-21T06:26:57;14.88;;;6.60;;
56343;SDS011;42245;42.058;24.700;2022-08-21T06:29:23;15.98;;;7.10;;
56343;SDS011;42245;42.058;24.700;2022-08-21T06:31:50;14.98;;;6.50;;
56343;SDS011;42245;42.058;24.700;2022-08-21T06:34:16;13.60;;;6.50;;
56343;SDS011;42245;42.058;24.700;2022-08-21T06:36:42;13.57;;;6.55;;
56343;SDS011;42245;42.058;24.700;2022-08-21T06:39:07;18.52;;;7.00;;
56343;SDS011;42245;42.058;24.700;2022-08-21T06:41:33;15.27;;;6.68;;
56343;SDS011;42245;42.058;24.700;2022-08-21T06:43:58;13.65;;;6.40;;
56343;SDS011;42245;42.058;24.700;2022-08-21T06:46:25;13.05;;;6.10;;
56343;SDS011;42245;42.058;24.700;2022-08-21T06:48:52;11.63;;;6.32;;
56343;SDS011;42245;42.058;24.700;2022-08-21T06:51:17;15.82;;;6.18;;
56343;SDS011;42245;42.058;24.700;2022-08-21T06:53:43;15.90;;;7.03;;
56343;SDS011;42245;42.058;24.700;2022-08-21T06:56:09;12.48;;;6.80;;
56343;SDS011;42245;42.058;24.700;2022-08-21T06:58:34;12.65;;;6.22;;
56343;SDS011;42245;42.058;24.700;2022-08-21T07:01:00;15.90;;;7.10;;
56343;SDS011;42245;42.058;24.700;2022-08-21T07:03:27;15.82;;;6.88;;
56343;SDS011;42245;42.058;24.700;2022-08-21T07:06:13;12.60;;;6.65;;
56343;SDS011;42245;42.058;24.700;2022-08-21T07:08:38;15.65;;;6.63;;
56343;SDS011;42245;42.058;24.700;2022-08-21T07:11:06;12.57;;;7.20;;
56343;SDS011;42245;42.058;24.700;2022-08-21T07:13:34;15.25;;;7.10;;
56343;SDS011;42245;42.058;24.700;2022-08-21T07:16:00;13.30;;;7.57;;
56343;SDS011;42245;42.058;24.700;2022-08-21T07:18:26;14.55;;;6.72;;
56343;SDS011;42245;42.058;24.700;2022-08-21T07:20:51;14.02;;;6.85;;
56343;SDS011;42245;42.058;24.700;2022-08-21T07:23:22;14.35;;;7.63;;
56343;SDS011;42245;42.058;24.700;2022-08-21T07:25:48;11.98;;;6.43;;
56343;SDS011;42245;42.058;24.700;2022-08-21T07:28:14;17.17;;;7.05;;
56343;SDS011;42245;42.058;24.700;2022-08-21T07:30:40;16.83;;;6.80;;
56343;SDS011;42245;42.058;24.700;2022-08-21T07:33:05;14.10;;;5.80;;
56343;SDS011;42245;42.058;24.700;2022-08-21T07:35:30;17.42;;;6.55;;
56343;SDS011;42245;42.058;24.700;2022-08-21T07:37:58;14.20;;;6.05;;
56343;SDS011;42245;42.058;24.700;2022-08-21T07:40:23;10.75;;;6.05;;
56343;SDS011;42245;42.058;24.700;2022-08-21T07:42:49;11.23;;;5.90;;
56343;SDS011;42245;42.058;24.700;2022-08-21T07:45:16;11.60;;;6.25;;
56343;SDS011;42245;42.058;24.700;2022-08-21T07:47:43;11.52;;;5.53;;
56343;SDS011;42245;42.058;24.700;2022-08-21T07:50:09;12.88;;;5.68;;
56343;SDS011;42245;42.058;24.700;2022-08-21T07:52:36;14.70;;;6.35;;
56343;SDS011;42245;42.058;24.700;2022-08-21T07:55:02;13.52;;;8.80;;
56343;SDS011;42245;42.058;24.700;2022-08-21T07:57:27;12.68;;;6.88;;
56343;SDS011;42245;42.058;24.700;2022-08-21T07:59:53;14.82;;;6.70;;
56343;SDS011;42245;42.058;24.700;2022-08-21T08:02:25;14.50;;;6.35;;
56343;SDS011;42245;42.058;24.700;2022-08-21T08:04:51;14.30;;;6.63;;
56343;SDS011;42245;42.058;24.700;2022-08-21T08:07:17;22.20;;;6.97;;
56343;SDS011;42245;42.058;24.700;2022-08-21T08:09:43;13.52;;;7.15;;
56343;SDS011;42245;42.058;24.700;2022-08-21T08:12:08;12.80;;;6.82;;
56343;SDS011;42245;42.058;24.700;2022-08-21T08:14:33;14.88;;;6.53;;
56343;SDS011;42245;42.058;24.700;2022-08-21T08:16:59;15.70;;;7.45;;
56343;SDS011;42245;42.058;24.700;2022-08-21T08:19:24;16.42;;;8.23;;
56343;SDS011;42245;42.058;24.700;2022-08-21T08:21:50;13.38;;;7.05;;
56343;SDS011;42245;42.058;24.700;2022-08-21T08:24:15;12.45;;;6.82;;
56343;SDS011;42245;42.058;24.700;2022-08-21T08:26:40;14.57;;;6.20;;
56343;SDS011;42245;42.058;24.700;2022-08-21T08:29:06;10.57;;;6.35;;
56343;SDS011;42245;42.058;24.700;2022-08-21T08:31:31;16.08;;;6.25;;
56343;SDS011;42245;42.058;24.700;2022-08-21T08:33:58;10.93;;;5.95;;
56343;SDS011;42245;42.058;24.700;2022-08-21T08:36:30;15.88;;;6.63;;
56343;SDS011;42245;42.058;24.700;2022-08-21T08:38:57;9.70;;;6.43;;
56343;SDS011;42245;42.058;24.700;2022-08-21T08:41:23;10.35;;;6.88;;
56343;SDS011;42245;42.058;24.700;2022-08-21T08:43:52;16.85;;;6.50;;
56343;SDS011;42245;42.058;24.700;2022-08-21T08:46:21;14.00;;;6.95;;
56343;SDS011;42245;42.058;24.700;2022-08-21T08:49:06;11.73;;;7.07;;
56343;SDS011;42245;42.058;24.700;2022-08-21T08:54:21;9.85;;;6.90;;
56343;SDS011;42245;42.058;24.700;2022-08-21T08:56:57;15.57;;;6.97;;
56343;SDS011;42245;42.058;24.700;2022-08-21T08:59:29;14.65;;;7.15;;
56343;SDS011;42245;42.058;24.700;2022-08-21T09:02:04;14.50;;;6.38;;
56343;SDS011;42245;42.058;24.700;2022-08-21T09:04:30;14.23;;;7.35;;
56343;SDS011;42245;42.058;24.700;2022-08-21T09:12:41;9.02;;;6.30;;
56343;SDS011;42245;42.058;24.700;2022-08-21T09:28:25;12.98;;;6.97;;
56343;SDS011;42245;42.058;24.700;2022-08-21T09:30:51;11.20;;;6.82;;
56343;SDS011;42245;42.058;24.700;2022-08-21T09:33:20;18.70;;;7.93;;
56343;SDS011;42245;42.058;24.700;2022-08-21T09:35:52;15.27;;;7.75;;
56343;SDS011;42245;42.058;24.700;2022-08-21T09:38:33;15.45;;;8.00;;
56343;SDS011;42245;42.058;24.700;2022-08-21T09:41:09;14.93;;;8.55;;
56343;SDS011;42245;42.058;24.700;2022-08-21T09:43:36;17.27;;;8.70;;
56343;SDS011;42245;42.058;24.700;2022-08-21T09:46:09;13.68;;;9.18;;
56343;SDS011;42245;42.058;24.700;2022-08-21T09:48:45;15.98;;;9.15;;
56343;SDS011;42245;42.058;24.700;2022-08-21T09:51:14;16.55;;;8.55;;
56343;SDS011;42245;42.058;24.700;2022-08-21T09:53:43;17.63;;;9.45;;
56343;SDS011;42245;42.058;24.700;2022-08-21T09:56:17;19.77;;;9.27;;
56343;SDS011;42245;42.058;24.700;2022-08-21T09:59:12;18.42;;;9.48;;
56343;SDS011;42245;42.058;24.700;2022-08-21T10:01:47;18.80;;;10.10;;
56343;SDS011;42245;42.058;24.700;2022-08-21T10:04:14;16.45;;;10.23;;
56343;SDS011;42245;42.058;24.700;2022-08-21T10:06:40;17.52;;;10.25;;
56343;SDS011;42245;42.058;24.700;2022-08-21T10:09:07;22.20;;;11.15;;
56343;SDS011;42245;42.058;24.700;2022-08-21T10:11:34;18.17;;;10.10;;
56343;SDS011;42245;42.058;24.700;2022-08-21T10:14:44;18.60;;;10.18;;
56343;SDS011;42245;42.058;24.700;2022-08-21T10:17:07;19.95;;;10.20;;
56343;SDS011;42245;42.058;24.700;2022-08-21T10:26:00;16.67;;;10.82;;
56343;SDS011;42245;42.058;24.700;2022-08-21T10:37:07;14.20;;;10.68;;
56343;SDS011;42245;42.058;24.700;2022-08-21T10:42:48;18.70;;;11.48;;
56343;SDS011;42245;42.058;24.700;2022-08-21T10:48:19;17.48;;;10.60;;
56343;SDS011;42245;42.058;24.700;2022-08-21T10:53:45;18.13;;;11.70;;
56343;SDS011;42245;42.058;24.700;2022-08-21T10:58:49;21.08;;;11.88;;
56343;SDS011;42245;42.058;24.700;2022-08-21T11:01:27;19.15;;;12.27;;
56343;SDS011;42245;42.058;24.700;2022-08-21T11:04:04;19.13;;;12.73;;
56343;SDS011;42245;42.058;24.700;2022-08-21T11:06:32;24.75;;;12.90;;
56343;SDS011;42245;42.058;24.700;2022-08-21T11:09:11;25.20;;;14.38;;
56343;SDS011;42245;42.058;24.700;2022-08-21T11:11:41;25.52;;;16.15;;
56343;SDS011;42245;42.058;24.700;2022-08-21T11:14:24;24.50;;;15.52;;
56343;SDS011;42245;42.058;24.700;2022-08-21T11:17:14;24.08;;;16.08;;
56343;SDS011;42245;42.058;24.700;2022-08-21T11:19:47;27.85;;;16.50;;
56343;SDS011;42245;42.058;24.700;2022-08-21T11:27:35;28.52;;;16.60;;
56343;SDS011;42245;42.058;24.700;2022-08-21T11:29:59;23.13;;;15.93;;
56343;SDS011;42245;42.058;24.700;2022-08-21T11:49:19;29.02;;;17.05;;
56343;SDS011;42245;42.058;24.700;2022-08-21T11:54:41;31.35;;;17.33;;
56343;SDS011;42245;42.058;24.700;2022-08-21T11:57:20;27.52;;;17.85;;
56343;SDS011;42245;42.058;24.700;2022-08-21T11:59:57;29.00;;;18.38;;
56343;SDS011;42245;42.058;24.700;2022-08-21T12:02:48;28.52;;;18.40;;
56343;SDS011;42245;42.058;24.700;2022-08-21T12:05:23;26.40;;;17.38;;
56343;SDS011;42245;42.058;24.700;2022-08-21T12:07:59;29.15;;;18.63;;
56343;SDS011;42245;42.058;24.700;2022-08-21T12:10:32;28.40;;;18.38;;
56343;SDS011;42245;42.058;24.700;2022-08-21T12:13:07;28.35;;;18.70;;
56343;SDS011;42245;42.058;24.700;2022-08-21T12:15:38;31.00;;;19.40;;
56343;SDS011;42245;42.058;24.700;2022-08-21T12:18:05;33.67;;;19.00;;
56343;SDS011;42245;42.058;24.700;2022-08-21T12:20:45;30.63;;;19.67;;
56343;SDS011;42245;42.058;24.700;2022-08-21T12:23:43;30.05;;;19.92;;
56343;SDS011;42245;42.058;24.700;2022-08-21T12:31:49;33.83;;;20.13;;
56343;SDS011;42245;42.058;24.700;2022-08-21T12:34:18;29.92;;;19.60;;
56343;SDS011;42245;42.058;24.700;2022-08-21T12:36:47;27.88;;;19.02;;
56343;SDS011;42245;42.058;24.700;2022-08-21T12:39:22;26.38;;;17.48;;
56343;SDS011;42245;42.058;24.700;2022-08-21T12:41:52;28.95;;;18.50;;
56343;SDS011;42245;42.058;24.700;2022-08-21T12:44:28;31.48;;;18.63;;
56343;SDS011;42245;42.058;24.700;2022-08-21T12:50:05;29.45;;;17.52;;
56343;SDS011;42245;42.058;24.700;2022-08-21T12:52:42;29.33;;;16.10;;
56343;SDS011;42245;42.058;24.700;2022-08-21T12:55:35;22.35;;;15.50;;
56343;SDS011;42245;42.058;24.700;2022-08-21T12:58:06;24.02;;;15.15;;
56343;SDS011;42245;42.058;24.700;2022-08-21T13:00:32;25.70;;;15.20;;
56343;SDS011;42245;42.058;24.700;2022-08-21T13:02:57;26.13;;;15.02;;
56343;SDS011;42245;42.058;24.700;2022-08-21T13:05:31;27.30;;;15.55;;
56343;SDS011;42245;42.058;24.700;2022-08-21T13:07:58;24.77;;;14.77;;
56343;SDS011;42245;42.058;24.700;2022-08-21T13:10:29;24.23;;;14.35;;
56343;SDS011;42245;42.058;24.700;2022-08-21T13:13:00;21.98;;;13.18;;
56343;SDS011;42245;42.058;24.700;2022-08-21T13:15:29;21.42;;;13.85;;
56343;SDS011;42245;42.058;24.700;2022-08-21T13:17:56;21.48;;;13.23;;
56343;SDS011;42245;42.058;24.700;2022-08-21T13:20:35;23.63;;;14.02;;
56343;SDS011;42245;42.058;24.700;2022-08-21T13:23:03;18.50;;;13.77;;
56343;SDS011;42245;42.058;24.700;2022-08-21T13:25:34;21.90;;;13.13;;
56343;SDS011;42245;42.058;24.700;2022-08-21T13:28:05;19.52;;;13.18;;
56343;SDS011;42245;42.058;24.700;2022-08-21T13:30:40;21.27;;;13.38;;
56343;SDS011;42245;42.058;24.700;2022-08-21T13:33:09;18.42;;;12.68;;
56343;SDS011;42245;42.058;24.700;2022-08-21T13:38:22;21.27;;;11.70;;
56343;SDS011;42245;42.058;24.700;2022-08-21T13:40:51;18.25;;;10.73;;
56343;SDS011;42245;42.058;24.700;2022-08-21T13:43:24;15.63;;;11.02;;
56343;SDS011;42245;42.058;24.700;2022-08-21T13:45:54;18.38;;;10.70;;
56343;SDS011;42245;42.058;24.700;2022-08-21T13:48:21;16.65;;;10.38;;
56343;SDS011;42245;42.058;24.700;2022-08-21T13:50:48;15.80;;;10.48;;
56343;SDS011;42245;42.058;24.700;2022-08-21T13:53:27;16.75;;;9.88;;
56343;SDS011;42245;42.058;24.700;2022-08-21T13:55:56;16.33;;;9.30;;
56343;SDS011;42245;42.058;24.700;2022-08-21T13:58:27;16.13;;;9.57;;
56343;SDS011;42245;42.058;24.700;2022-08-21T14:00:53;14.07;;;8.60;;
56343;SDS011;42245;42.058;24.700;2022-08-21T14:03:41;11.27;;;8.80;;
56343;SDS011;42245;42.058;24.700;2022-08-21T14:06:15;13.73;;;8.13;;
56343;SDS011;42245;42.058;24.700;2022-08-21T14:08:46;14.05;;;9.32;;
56343;SDS011;42245;42.058;24.700;2022-08-21T14:11:33;12.40;;;9.38;;
56343;SDS011;42245;42.058;24.700;2022-08-21T14:14:00;11.68;;;8.20;;
56343;SDS011;42245;42.058;24.700;2022-08-21T14:16:40;14.30;;;8.50;;
56343;SDS011;42245;42.058;24.700;2022-08-21T14:19:23;18.85;;;8.90;;
56343;SDS011;42245;42.058;24.700;2022-08-21T14:24:58;13.77;;;8.57;;
56343;SDS011;42245;42.058;24.700;2022-08-21T14:27:38;18.02;;;8.75;;
56343;SDS011;42245;42.058;24.700;2022-08-21T14:32:57;11.98;;;8.20;;
56343;SDS011;42245;42.058;24.700;2022-08-21T14:35:22;15.68;;;8.02;;
56343;SDS011;42245;42.058;24.700;2022-08-21T14:37:48;10.95;;;7.68;;
56343;SDS011;42245;42.058;24.700;2022-08-21T14:40:18;12.38;;;8.00;;
56343;SDS011;42245;42.058;24.700;2022-08-21T14:42:44;9.13;;;7.43;;
56343;SDS011;42245;42.058;24.700;2022-08-21T14:45:14;13.80;;;7.65;;
56343;SDS011;42245;42.058;24.700;2022-08-21T14:47:40;12.70;;;7.18;;
56343;SDS011;42245;42.058;24.700;2022-08-21T14:50:06;11.60;;;7.88;;
56343;SDS011;42245;42.058;24.700;2022-08-21T14:52:32;15.30;;;7.72;;
56343;SDS011;42245;42.058;24.700;2022-08-21T14:54:57;9.65;;;7.30;;
56343;SDS011;42245;42.058;24.700;2022-08-21T14:57:23;10.75;;;7.50;;
56343;SDS011;42245;42.058;24.700;2022-08-21T14:59:49;9.88;;;7.70;;
56343;SDS011;42245;42.058;24.700;2022-08-21T15:02:14;11.90;;;7.20;;
56343;SDS011;42245;42.058;24.700;2022-08-21T15:04:40;13.73;;;7.65;;
56343;SDS011;42245;42.058;24.700;2022-08-21T15:07:06;10.73;;;6.75;;
56343;SDS011;42245;42.058;24.700;2022-08-21T15:09:32;11.05;;;6.53;;
56343;SDS011;42245;42.058;24.700;2022-08-21T15:11:58;11.60;;;7.13;;
56343;SDS011;42245;42.058;24.700;2022-08-21T15:14:29;11.60;;;7.28;;
56343;SDS011;42245;42.058;24.700;2022-08-21T15:16:56;12.50;;;7.10;;
56343;SDS011;42245;42.058;24.700;2022-08-21T15:19:22;12.85;;;6.55;;
56343;SDS011;42245;42.058;24.700;2022-08-21T15:21:47;10.35;;;6.35;;
56343;SDS011;42245;42.058;24.700;2022-08-21T15:24:13;9.93;;;6.95;;
56343;SDS011;42245;42.058;24.700;2022-08-21T15:26:38;12.63;;;6.55;;
56343;SDS011;42245;42.058;24.700;2022-08-21T15:29:04;11.23;;;6.13;;
56343;SDS011;42245;42.058;24.700;2022-08-21T15:31:34;11.73;;;6.68;;
56343;SDS011;42245;42.058;24.700;2022-08-21T15:34:00;7.70;;;6.50;;
56343;SDS011;42245;42.058;24.700;2022-08-21T15:36:26;12.00;;;6.75;;
56343;SDS011;42245;42.058;24.700;2022-08-21T15:38:51;15.30;;;6.82;;
56343;SDS011;42245;42.058;24.700;2022-08-21T15:41:16;11.88;;;6.75;;
56343;SDS011;42245;42.058;24.700;2022-08-21T15:43:45;17.77;;;7.80;;
56343;SDS011;42245;42.058;24.700;2022-08-21T15:46:13;13.45;;;6.72;;
56343;SDS011;42245;42.058;24.700;2022-08-21T15:48:40;15.60;;;7.03;;
56343;SDS011;42245;42.058;24.700;2022-08-21T15:51:09;8.32;;;6.43;;
56343;SDS011;42245;42.058;24.700;2022-08-21T15:53:35;10.13;;;6.50;;
56343;SDS011;42245;42.058;24.700;2022-08-21T15:56:03;9.27;;;6.47;;
56343;SDS011;42245;42.058;24.700;2022-08-21T15:58:30;9.90;;;6.35;;